Time;durP1;ratioP1;P1;durP2;ratioP2;P2;SDS_P1;SDS_P2;PMS_P1;PMS_P2;Temp;Humidity;BMP_temperature;BMP_pressure;BME280_temperature;BME280_humidity;BME280_pressure;Samples;Min_cycle;Max_cycle;Signal;HPM_P1;HPM_P2
2023/09/18 00:00:17;;;;;;;12.60;6.10;;;;;;;15.78;85.12;100306.23;109820;1284;22235;-80
2023/09/18 00:03:08;;;;;;;12.30;5.30;;;;;;;15.71;85.16;100301.70;109826;1283;22194;-80
2023/09/18 00:05:39;;;;;;;12.70;5.10;;;;;;;15.64;85.10;100302.98;109802;1284;22338;-80
2023/09/18 00:08:09;;;;;;;12.20;4.40;;;;;;;15.58;85.26;100298.67;109835;1284;22989;-80
2023/09/18 00:10:40;;;;;;;15.30;7.40;;;;;;;15.55;85.12;100299.77;109817;1284;22357;-79
2023/09/18 00:13:11;;;;;;;14.70;5.60;;;;;;;15.51;85.13;100296.45;109821;1283;22241;-79
2023/09/18 00:15:44;;;;;;;12.60;4.90;;;;;;;15.51;85.09;100297.16;109810;1283;22272;-80
2023/09/18 00:18:15;;;;;;;13.80;5.80;;;;;;;15.47;85.13;100291.27;109820;1283;22175;-79
2023/09/18 00:20:48;;;;;;;14.10;6.20;;;;;;;15.44;85.27;100289.17;109794;1276;22209;-79
2023/09/18 00:23:18;;;;;;;12.00;5.40;;;;;;;15.43;85.30;100295.80;109798;1283;22560;-79
2023/09/18 00:25:49;;;;;;;12.10;5.10;;;;;;;15.39;85.49;100286.90;109789;1283;22199;-79
2023/09/18 00:28:20;;;;;;;13.00;5.50;;;;;;;15.35;85.56;100288.18;109806;1284;22203;-80
2023/09/18 00:30:51;;;;;;;13.50;5.30;;;;;;;15.32;85.77;100279.38;109817;1272;22209;-79
2023/09/18 00:33:22;;;;;;;13.20;4.90;;;;;;;15.32;85.78;100285.73;109833;1283;22180;-80
2023/09/18 00:35:53;;;;;;;13.60;6.00;;;;;;;15.32;85.94;100282.19;109785;1284;22180;-79
2023/09/18 00:38:24;;;;;;;13.00;6.00;;;;;;;15.33;86.06;100283.11;109823;1284;22227;-80
2023/09/18 00:40:55;;;;;;;15.60;5.80;;;;;;;15.34;86.30;100280.61;109784;1277;22907;-80
2023/09/18 00:43:25;;;;;;;14.70;5.50;;;;;;;15.33;86.58;100282.14;109741;1284;22204;-80
2023/09/18 00:45:56;;;;;;;14.40;5.80;;;;;;;15.29;86.77;100283.37;109804;1277;22176;-80
2023/09/18 00:48:28;;;;;;;13.10;5.60;;;;;;;15.25;86.91;100281.52;109798;1273;22865;-79
2023/09/18 00:50:58;;;;;;;15.50;6.20;;;;;;;15.20;87.03;100282.43;109740;1284;22702;-79
2023/09/18 00:53:29;;;;;;;11.30;5.30;;;;;;;15.17;87.04;100280.65;109788;1284;22159;-80
2023/09/18 00:56:01;;;;;;;12.60;5.30;;;;;;;15.14;87.00;100277.98;109776;1284;22148;-80
2023/09/18 00:58:33;;;;;;;14.10;6.00;;;;;;;15.11;87.18;100278.75;109803;1284;22188;-80
2023/09/18 01:01:05;;;;;;;15.10;5.90;;;;;;;15.08;87.26;100274.85;109819;1283;22638;-79
2023/09/18 01:03:36;;;;;;;16.80;5.90;;;;;;;15.04;87.46;100272.39;109800;1284;22224;-79
2023/09/18 01:06:07;;;;;;;12.10;5.00;;;;;;;15.03;87.33;100267.98;109801;1277;22944;-79
2023/09/18 01:08:38;;;;;;;11.80;5.30;;;;;;;15.03;87.37;100274.65;109810;1284;22138;-79
2023/09/18 01:11:15;;;;;;;13.10;5.40;;;;;;;15.01;87.51;100275.05;109779;1284;22252;-79
2023/09/18 01:13:52;;;;;;;12.90;5.70;;;;;;;14.96;87.91;100272.23;109807;1284;22289;-80
2023/09/18 01:16:33;;;;;;;13.00;6.00;;;;;;;14.95;87.64;100270.19;109798;1284;22162;-80
2023/09/18 01:19:03;;;;;;;11.90;5.10;;;;;;;14.94;87.85;100267.67;109816;1284;22195;-80
2023/09/18 01:21:34;;;;;;;12.70;5.50;;;;;;;14.91;87.77;100267.25;109783;1284;23123;-79
2023/09/18 01:24:06;;;;;;;10.60;4.90;;;;;;;14.89;87.82;100261.27;109796;1276;22610;-79
2023/09/18 01:26:36;;;;;;;11.80;5.20;;;;;;;14.86;87.99;100257.85;109785;1284;22258;-79
2023/09/18 01:29:07;;;;;;;14.70;6.00;;;;;;;14.85;88.26;100258.87;109830;1284;22145;-79
2023/09/18 01:31:38;;;;;;;13.10;5.30;;;;;;;14.84;88.19;100253.25;109789;1277;22208;-79
2023/09/18 01:34:10;;;;;;;13.50;6.20;;;;;;;14.84;88.53;100255.18;109812;1276;23040;-79
2023/09/18 01:36:41;;;;;;;13.60;6.10;;;;;;;14.85;88.61;100251.01;108070;1284;22952;-79
2023/09/18 01:39:13;;;;;;;13.10;5.40;;;;;;;14.84;88.77;100249.71;109795;1284;22238;-79
2023/09/18 01:41:44;;;;;;;11.00;4.90;;;;;;;14.85;88.88;100242.88;109808;1283;22353;-80
2023/09/18 01:44:14;;;;;;;13.60;6.40;;;;;;;14.87;89.03;100239.52;109768;1284;22183;-80
2023/09/18 01:46:46;;;;;;;16.70;6.30;;;;;;;14.89;89.04;100237.11;109761;1280;22895;-79
2023/09/18 01:49:17;;;;;;;12.70;5.80;;;;;;;14.91;89.37;100234.95;109817;1283;22149;-79
2023/09/18 01:51:49;;;;;;;14.20;6.40;;;;;;;14.93;89.44;100233.04;107983;1284;23068;-79
2023/09/18 01:54:19;;;;;;;15.00;6.60;;;;;;;14.97;89.73;100229.25;106586;1284;25698;-79
2023/09/18 01:56:50;;;;;;;14.20;6.90;;;;;;;14.98;89.75;100225.92;106684;1280;25368;-79
2023/09/18 01:59:21;;;;;;;15.70;6.10;;;;;;;14.97;89.89;100226.34;106806;1284;25365;-79
2023/09/18 02:01:53;;;;;;;14.20;5.80;;;;;;;14.95;89.88;100222.96;106840;1284;22540;-79
2023/09/18 02:04:25;;;;;;;13.20;6.60;;;;;;;14.92;90.20;100222.70;106819;1284;25371;-78
2023/09/18 02:06:57;;;;;;;16.60;6.80;;;;;;;14.87;90.41;100218.35;106804;1284;22530;-79
2023/09/18 02:09:27;;;;;;;17.20;7.50;;;;;;;14.84;90.51;100219.98;106778;1283;22526;-78
2023/09/18 02:11:58;;;;;;;13.20;5.70;;;;;;;14.81;90.58;100219.06;106839;1284;23015;-79
2023/09/18 02:14:31;;;;;;;13.80;6.70;;;;;;;14.78;90.69;100215.98;106812;1284;22579;-79
2023/09/18 02:17:02;;;;;;;13.60;5.90;;;;;;;14.74;90.79;100215.42;106812;1284;25245;-78
2023/09/18 02:19:33;;;;;;;13.70;6.20;;;;;;;14.72;90.90;100213.92;106757;1283;24240;-79
2023/09/18 02:22:04;;;;;;;13.60;6.80;;;;;;;14.70;90.79;100211.58;106631;1273;22534;-79
2023/09/18 02:24:35;;;;;;;14.10;5.80;;;;;;;14.68;90.92;100210.91;106670;1284;22743;-78
2023/09/18 02:27:07;;;;;;;20.40;6.50;;;;;;;14.67;91.17;100204.41;106667;1284;22540;-78
2023/09/18 02:29:38;;;;;;;13.60;6.60;;;;;;;14.65;91.20;100206.30;106705;1283;24144;-79
2023/09/18 02:32:10;;;;;;;23.50;7.60;;;;;;;14.62;91.51;100204.00;106620;1280;25368;-79
2023/09/18 02:34:40;;;;;;;14.50;7.00;;;;;;;14.61;91.71;100203.85;106799;1277;24259;-79
2023/09/18 02:37:11;;;;;;;15.50;6.50;;;;;;;14.59;91.66;100205.89;106800;1283;22552;-79
2023/09/18 02:39:42;;;;;;;16.50;6.00;;;;;;;14.58;91.74;100207.16;106984;1284;25361;-79
2023/09/18 02:42:13;;;;;;;13.90;6.50;;;;;;;14.56;91.75;100204.35;107178;1284;22548;-79
2023/09/18 02:44:43;;;;;;;15.30;6.90;;;;;;;14.54;91.67;100204.81;107372;1284;22552;-80
2023/09/18 02:47:14;;;;;;;14.40;5.90;;;;;;;14.52;91.76;100199.94;107588;1277;22584;-79
2023/09/18 02:49:45;;;;;;;15.80;6.20;;;;;;;14.51;91.79;100203.66;108474;1284;22548;-79
2023/09/18 02:52:15;;;;;;;13.00;6.60;;;;;;;14.50;92.11;100204.33;108565;1284;22558;-79
2023/09/18 02:54:46;;;;;;;17.60;7.40;;;;;;;14.50;92.43;100202.44;107265;1277;23104;-79
2023/09/18 02:57:17;;;;;;;15.30;6.10;;;;;;;14.50;92.41;100203.83;106663;1274;22559;-79
2023/09/18 02:59:48;;;;;;;15.00;6.90;;;;;;;14.50;92.49;100201.16;106614;1281;22534;-79
2023/09/18 03:02:19;;;;;;;15.70;6.60;;;;;;;14.50;92.62;100203.67;106567;1284;23621;-79
2023/09/18 03:04:50;;;;;;;15.20;7.00;;;;;;;14.49;92.86;100205.66;106646;1284;22542;-79
2023/09/18 03:07:20;;;;;;;19.20;7.50;;;;;;;14.47;93.04;100205.04;106722;1284;22542;-79
2023/09/18 03:09:51;;;;;;;17.50;6.70;;;;;;;14.46;93.08;100202.90;106813;1280;23005;-79
2023/09/18 03:12:23;;;;;;;15.70;7.00;;;;;;;14.46;93.11;100201.82;106867;1280;25210;-79
2023/09/18 03:14:53;;;;;;;19.40;8.00;;;;;;;14.46;93.14;100191.76;106929;1284;22536;-78
2023/09/18 03:17:24;;;;;;;16.80;7.50;;;;;;;14.48;93.18;100194.98;106918;1284;26545;-79
2023/09/18 03:19:55;;;;;;;17.50;8.30;;;;;;;14.48;93.48;100195.64;106944;1267;22547;-78
2023/09/18 03:22:26;;;;;;;15.70;6.60;;;;;;;14.47;93.55;100192.99;107116;1284;22562;-78
2023/09/18 03:24:57;;;;;;;15.70;7.10;;;;;;;14.45;93.60;100183.34;106881;1277;22527;-78
2023/09/18 03:27:28;;;;;;;18.30;8.70;;;;;;;14.45;93.76;100191.71;107040;1284;22624;-78
2023/09/18 03:29:59;;;;;;;15.90;8.00;;;;;;;14.44;93.86;100186.91;106763;1284;23797;-79
2023/09/18 03:32:30;;;;;;;17.40;8.50;;;;;;;14.43;93.74;100185.11;106690;1284;22536;-79
2023/09/18 03:35:00;;;;;;;17.40;7.70;;;;;;;14.43;94.10;100188.73;106742;1277;24222;-79
2023/09/18 03:37:31;;;;;;;16.50;7.60;;;;;;;14.42;94.08;100184.02;106712;1284;25309;-78
2023/09/18 03:40:03;;;;;;;15.60;7.70;;;;;;;14.41;94.14;100180.61;106866;1279;22546;-79
2023/09/18 03:42:33;;;;;;;18.80;7.90;;;;;;;14.39;94.20;100170.30;106823;1268;22661;-78
2023/09/18 03:45:06;;;;;;;21.20;8.50;;;;;;;14.38;94.31;100171.52;106907;1284;23007;-78
2023/09/18 03:47:39;;;;;;;16.70;7.50;;;;;;;14.37;94.32;100169.83;106854;1278;22534;-78
2023/09/18 03:50:11;;;;;;;16.40;8.10;;;;;;;14.35;94.26;100165.08;106766;1278;22583;-78
2023/09/18 03:52:42;;;;;;;15.90;7.50;;;;;;;14.33;94.28;100167.36;109824;1280;22971;-79
2023/09/18 03:55:14;;;;;;;16.70;8.00;;;;;;;14.32;94.29;100159.71;109790;1283;22171;-78
2023/09/18 03:57:47;;;;;;;18.70;9.10;;;;;;;14.34;94.71;100163.64;109774;1280;22266;-79
2023/09/18 04:00:18;;;;;;;16.60;7.80;;;;;;;14.35;95.16;100158.95;109758;1283;22160;-78
2023/09/18 04:02:49;;;;;;;18.00;9.50;;;;;;;14.36;95.09;100151.90;109775;1277;22165;-79
2023/09/18 04:05:20;;;;;;;18.90;9.20;;;;;;;14.37;94.83;100146.90;109786;1284;22141;-78
2023/09/18 04:07:51;;;;;;;18.30;8.60;;;;;;;14.39;95.28;100142.92;109768;1277;22378;-77
2023/09/18 04:10:22;;;;;;;20.30;8.70;;;;;;;14.39;95.26;100139.50;109755;1277;23138;-77
2023/09/18 04:12:53;;;;;;;20.20;9.40;;;;;;;14.40;95.36;100135.88;109759;1277;22199;-78
2023/09/18 04:15:25;;;;;;;23.70;9.90;;;;;;;14.42;95.37;100143.13;109686;1273;23252;-77
2023/09/18 04:17:56;;;;;;;19.30;9.10;;;;;;;14.44;95.46;100143.54;109722;1278;22415;-75
2023/09/18 04:20:27;;;;;;;25.00;9.30;;;;;;;14.45;95.44;100145.80;109772;1277;22215;-75
2023/09/18 04:23:21;;;;;;;19.70;9.60;;;;;;;14.46;95.46;100142.83;109764;1280;22142;-75
2023/09/18 04:25:52;;;;;;;24.60;9.90;;;;;;;14.47;95.60;100136.66;109751;1284;22236;-75
2023/09/18 04:28:24;;;;;;;20.60;8.70;;;;;;;14.47;95.66;100136.77;109774;1276;22144;-75
2023/09/18 04:30:55;;;;;;;19.50;8.80;;;;;;;14.48;95.50;100135.34;109766;1284;22912;-75
2023/09/18 04:33:28;;;;;;;19.00;8.90;;;;;;;14.49;95.41;100130.12;109717;1277;22251;-76
2023/09/18 04:35:59;;;;;;;21.60;9.40;;;;;;;14.49;95.68;100126.69;109668;1280;22249;-76
2023/09/18 04:38:29;;;;;;;18.20;9.00;;;;;;;14.50;95.25;100125.62;109676;1280;22292;-76
2023/09/18 04:41:03;;;;;;;19.00;9.40;;;;;;;14.51;95.50;100120.98;109681;1277;22298;-76
2023/09/18 04:43:35;;;;;;;20.50;10.00;;;;;;;14.51;95.49;100112.86;109743;1277;22253;-76
2023/09/18 04:46:06;;;;;;;21.90;9.10;;;;;;;14.51;95.58;100108.46;109708;1277;22237;-76
2023/09/18 04:48:37;;;;;;;19.80;8.90;;;;;;;14.51;95.70;100116.64;109726;1276;22217;-75
2023/09/18 04:51:08;;;;;;;19.60;9.50;;;;;;;14.51;95.92;100118.89;109696;1277;23204;-74
2023/09/18 04:53:38;;;;;;;24.30;10.20;;;;;;;14.52;95.93;100111.27;109750;1277;22252;-75
2023/09/18 04:56:10;;;;;;;18.00;9.00;;;;;;;14.53;95.88;100111.98;109733;1277;22375;-74
2023/09/18 04:58:41;;;;;;;19.90;8.90;;;;;;;14.54;95.94;100108.64;109685;1277;23543;-76
2023/09/18 05:01:12;;;;;;;19.60;8.20;;;;;;;14.55;96.01;100112.30;109686;1276;22340;-74
2023/09/18 05:03:42;;;;;;;21.00;9.50;;;;;;;14.56;96.23;100110.37;109713;1284;22425;-76
2023/09/18 05:06:13;;;;;;;20.90;9.60;;;;;;;14.55;96.22;100110.94;109744;1284;22359;-75
2023/09/18 05:08:44;;;;;;;22.40;10.00;;;;;;;14.57;96.41;100113.59;109638;1277;22250;-75
2023/09/18 05:11:15;;;;;;;21.00;9.90;;;;;;;14.58;96.37;100112.71;109690;1284;22960;-76
2023/09/18 05:13:46;;;;;;;22.50;9.90;;;;;;;14.60;96.49;100109.35;109765;1276;23086;-76
2023/09/18 05:16:17;;;;;;;19.30;9.20;;;;;;;14.63;96.56;100109.04;109785;1278;22152;-76
2023/09/18 05:18:47;;;;;;;20.50;10.30;;;;;;;14.66;96.93;100104.60;109695;1276;22302;-74
2023/09/18 05:21:22;;;;;;;22.00;9.30;;;;;;;14.69;96.99;100104.69;109786;1283;22175;-74
2023/09/18 05:23:54;;;;;;;19.50;9.10;;;;;;;14.71;97.11;100100.77;109781;1276;22945;-75
2023/09/18 05:26:26;;;;;;;26.00;10.50;;;;;;;14.74;96.93;100102.81;109789;1277;23494;-75
2023/09/18 05:28:57;;;;;;;22.80;9.70;;;;;;;14.77;97.10;100095.66;109808;1280;22158;-75
2023/09/18 05:31:28;;;;;;;22.50;10.70;;;;;;;14.80;97.16;100093.20;109803;1283;22342;-75
2023/09/18 05:33:59;;;;;;;23.40;10.60;;;;;;;14.83;97.30;100093.21;109793;1284;22321;-74
2023/09/18 05:36:29;;;;;;;22.40;10.30;;;;;;;14.87;97.38;100093.20;109811;1283;22147;-75
2023/09/18 05:39:01;;;;;;;26.10;11.50;;;;;;;14.90;97.20;100092.48;109768;1283;22231;-74
2023/09/18 05:41:31;;;;;;;20.10;10.90;;;;;;;14.94;97.64;100085.53;109773;1277;22900;-76
2023/09/18 05:44:03;;;;;;;25.10;11.00;;;;;;;14.99;97.80;100086.74;109771;1280;22295;-75
2023/09/18 05:46:34;;;;;;;25.80;10.90;;;;;;;15.04;98.14;100083.96;109780;1277;22332;-75
2023/09/18 05:49:05;;;;;;;24.10;11.50;;;;;;;15.08;98.33;100081.67;109802;1279;23068;-76
2023/09/18 05:51:36;;;;;;;22.60;10.50;;;;;;;15.12;98.19;100083.30;109792;1284;22267;-76
2023/09/18 05:54:07;;;;;;;24.30;11.30;;;;;;;15.17;98.68;100085.65;109784;1280;22194;-75
2023/09/18 05:56:38;;;;;;;20.80;9.90;;;;;;;15.21;98.90;100087.42;109797;1277;22151;-74
2023/09/18 05:59:08;;;;;;;21.60;11.60;;;;;;;15.26;98.87;100081.12;109724;1277;22264;-75
2023/09/18 06:01:39;;;;;;;21.80;10.80;;;;;;;15.30;99.08;100080.30;109660;1277;22330;-76
2023/09/18 06:04:10;;;;;;;23.00;11.80;;;;;;;15.35;99.84;100078.23;109667;1280;22311;-76
2023/09/18 06:06:41;;;;;;;23.30;12.00;;;;;;;15.40;99.88;100070.74;109740;1280;22305;-76
2023/09/18 06:09:12;;;;;;;23.20;11.70;;;;;;;15.45;99.61;100074.05;109749;1263;22335;-76
2023/09/18 06:11:43;;;;;;;22.20;11.30;;;;;;;15.50;99.86;100069.02;109750;1280;22157;-75
2023/09/18 06:14:14;;;;;;;23.60;11.60;;;;;;;15.56;100.00;100067.65;109777;1280;22128;-76
2023/09/18 06:16:45;;;;;;;20.30;10.10;;;;;;;15.61;100.00;100065.94;109749;1277;23007;-76
2023/09/18 06:19:17;;;;;;;21.70;10.80;;;;;;;15.67;100.00;100064.44;109707;1284;22912;-77
2023/09/18 06:21:47;;;;;;;23.60;12.30;;;;;;;15.74;100.00;100065.21;109708;1277;22370;-77
2023/09/18 06:24:18;;;;;;;23.50;11.00;;;;;;;15.80;100.00;100065.55;109739;1284;22166;-76
2023/09/18 06:26:50;;;;;;;20.90;11.30;;;;;;;15.87;100.00;100057.42;109720;1284;22287;-76
2023/09/18 06:29:21;;;;;;;24.50;11.60;;;;;;;15.94;100.00;100055.89;109711;1278;22332;-76
2023/09/18 06:31:52;;;;;;;22.40;10.80;;;;;;;16.02;100.00;100056.21;109725;1278;22358;-76
2023/09/18 06:34:23;;;;;;;21.60;10.80;;;;;;;16.11;100.00;100054.41;109770;1278;22885;-75
2023/09/18 06:36:54;;;;;;;21.90;10.40;;;;;;;16.19;100.00;100056.72;109709;1280;22391;-75
2023/09/18 06:39:25;;;;;;;23.30;11.40;;;;;;;16.26;100.00;100056.83;109697;1273;22421;-76
2023/09/18 06:41:56;;;;;;;22.40;10.00;;;;;;;16.35;100.00;100052.14;109664;1277;22329;-77
2023/09/18 06:44:27;;;;;;;22.30;10.90;;;;;;;16.45;100.00;100051.98;109720;1278;22367;-76
2023/09/18 06:46:58;;;;;;;24.00;10.90;;;;;;;16.53;100.00;100049.37;109437;1278;22539;-76
2023/09/18 06:49:30;;;;;;;19.10;10.60;;;;;;;16.62;100.00;100041.21;107359;1283;25271;-76
2023/09/18 06:52:01;;;;;;;21.20;10.90;;;;;;;16.69;100.00;100044.21;107229;1280;25236;-75
2023/09/18 06:54:32;;;;;;;22.90;11.90;;;;;;;16.77;100.00;100040.85;106989;1277;23969;-76
2023/09/18 06:57:03;;;;;;;21.10;10.40;;;;;;;16.87;100.00;100046.77;106589;1280;23049;-75
2023/09/18 06:59:34;;;;;;;21.10;11.50;;;;;;;16.97;100.00;100041.85;106808;1280;25355;-76
2023/09/18 07:02:05;;;;;;;19.40;10.40;;;;;;;17.07;100.00;100045.90;106941;1279;25755;-75
2023/09/18 07:04:36;;;;;;;20.30;11.90;;;;;;;17.15;100.00;100041.30;106782;1277;24255;-75
2023/09/18 07:07:07;;;;;;;24.80;11.90;;;;;;;17.25;100.00;100046.10;106855;1279;22700;-76
2023/09/18 07:09:38;;;;;;;20.50;10.70;;;;;;;17.35;100.00;100042.30;106854;1278;23510;-75
2023/09/18 07:12:09;;;;;;;27.70;11.60;;;;;;;17.43;100.00;100041.29;106875;1277;22681;-76
2023/09/18 07:14:40;;;;;;;23.50;12.00;;;;;;;17.52;100.00;100046.48;106878;1280;22554;-77
2023/09/18 07:17:11;;;;;;;19.30;10.10;;;;;;;17.62;100.00;100044.52;106785;1284;26814;-76
2023/09/18 07:19:42;;;;;;;23.20;11.90;;;;;;;17.71;100.00;100041.33;106766;1284;22767;-76
2023/09/18 07:22:13;;;;;;;20.10;10.60;;;;;;;17.81;100.00;100037.64;106653;1284;23201;-76
2023/09/18 07:24:45;;;;;;;26.90;11.30;;;;;;;17.92;100.00;100039.55;106600;1284;22535;-76
2023/09/18 07:27:17;;;;;;;24.10;12.10;;;;;;;18.00;100.00;100033.59;109743;1284;22162;-76
2023/09/18 07:29:47;;;;;;;21.20;11.40;;;;;;;18.09;100.00;100030.92;109751;1276;22347;-76
2023/09/18 07:32:19;;;;;;;28.00;11.10;;;;;;;18.17;100.00;100028.19;109760;1276;22352;-76
2023/09/18 07:34:50;;;;;;;24.10;12.10;;;;;;;18.25;100.00;100025.50;109685;1277;22191;-78
2023/09/18 07:37:22;;;;;;;22.90;11.40;;;;;;;18.32;99.87;100025.17;109666;1280;22388;-76
2023/09/18 07:39:53;;;;;;;21.30;10.10;;;;;;;18.41;99.92;100026.84;109746;1283;23152;-77
2023/09/18 07:42:27;;;;;;;21.30;9.70;;;;;;;18.50;99.71;100026.86;109708;1278;22599;-76
2023/09/18 07:44:58;;;;;;;20.10;10.40;;;;;;;18.62;99.55;100029.91;109737;1279;22321;-76
2023/09/18 07:47:30;;;;;;;23.30;11.20;;;;;;;18.73;99.35;100028.84;109773;1277;22312;-76
2023/09/18 07:50:02;;;;;;;19.50;9.80;;;;;;;18.84;99.19;100027.41;109725;1277;22169;-76
2023/09/18 07:52:33;;;;;;;23.90;10.30;;;;;;;18.96;98.98;100025.70;109774;1284;22192;-76
2023/09/18 07:55:04;;;;;;;22.80;12.00;;;;;;;19.05;98.69;100028.05;109736;1284;22358;-74
2023/09/18 07:57:35;;;;;;;22.00;9.40;;;;;;;19.15;98.26;100023.48;109743;1277;22333;-76
2023/09/18 08:00:12;;;;;;;21.00;10.00;;;;;;;19.29;97.96;100022.23;109782;1282;22985;-75
2023/09/18 08:02:43;;;;;;;23.60;11.60;;;;;;;19.43;97.72;100022.85;109742;1284;22302;-76
2023/09/18 08:05:15;;;;;;;20.10;10.90;;;;;;;19.56;97.60;100016.97;109776;1284;22991;-77
2023/09/18 08:07:47;;;;;;;20.20;10.20;;;;;;;19.67;97.06;100012.98;109806;1284;22406;-77
2023/09/18 08:10:18;;;;;;;21.90;10.60;;;;;;;19.76;96.84;100012.63;109795;1284;22141;-76
2023/09/18 08:12:51;;;;;;;21.70;10.20;;;;;;;19.88;96.73;100008.60;109764;1284;22155;-78
2023/09/18 08:15:23;;;;;;;21.30;10.20;;;;;;;19.99;96.23;100006.95;109799;1284;22189;-76
2023/09/18 08:17:53;;;;;;;19.30;9.60;;;;;;;20.09;95.64;100000.67;109805;1284;23329;-77
2023/09/18 08:20:26;;;;;;;19.30;10.40;;;;;;;20.20;95.44;100005.04;109789;1284;22992;-76
2023/09/18 08:22:57;;;;;;;18.10;9.90;;;;;;;20.35;95.66;100000.88;109786;1284;22704;-76
2023/09/18 08:25:27;;;;;;;22.20;10.00;;;;;;;20.47;95.12;99996.80;109747;1280;22150;-78
2023/09/18 08:27:58;;;;;;;20.20;10.20;;;;;;;20.58;94.89;99993.38;109771;1284;22839;-76
2023/09/18 08:30:29;;;;;;;21.00;10.40;;;;;;;20.66;94.42;99990.96;109797;1280;22212;-77
2023/09/18 08:33:00;;;;;;;22.90;10.00;;;;;;;20.73;93.97;99985.11;109747;1284;22185;-76
2023/09/18 08:35:32;;;;;;;22.60;9.90;;;;;;;20.81;93.58;99979.68;109760;1284;22248;-77
2023/09/18 08:38:03;;;;;;;19.70;8.90;;;;;;;20.87;93.27;99978.34;109801;1284;22586;-78
2023/09/18 08:40:35;;;;;;;19.00;9.70;;;;;;;20.96;93.27;99972.10;109816;1284;22193;-77
2023/09/18 08:43:07;;;;;;;24.10;10.80;;;;;;;21.06;93.05;99971.08;109813;1284;22205;-76
2023/09/18 08:45:44;;;;;;;20.20;10.50;;;;;;;21.15;92.51;99971.11;109806;1284;22224;-77
2023/09/18 08:48:15;;;;;;;22.20;10.40;;;;;;;21.23;91.83;99968.17;109799;1282;22150;-77
2023/09/18 08:50:48;;;;;;;19.80;9.80;;;;;;;21.29;91.43;99967.41;109798;1284;22997;-78
2023/09/18 08:53:18;;;;;;;17.40;9.20;;;;;;;21.35;91.20;99961.45;109815;1272;22157;-77
2023/09/18 08:55:49;;;;;;;18.30;9.60;;;;;;;21.45;90.87;99958.70;109775;1284;22379;-76
2023/09/18 08:58:22;;;;;;;20.80;10.30;;;;;;;21.53;90.58;99949.30;109793;1284;22176;-77
2023/09/18 09:00:53;;;;;;;17.50;9.80;;;;;;;21.61;90.41;99943.72;109795;1278;22339;-78
2023/09/18 09:03:24;;;;;;;21.90;10.00;;;;;;;21.69;90.04;99941.06;109809;1284;22145;-77
2023/09/18 09:05:54;;;;;;;18.80;10.00;;;;;;;21.78;89.65;99938.21;109796;1284;22323;-78
2023/09/18 09:08:25;;;;;;;24.10;11.40;;;;;;;21.87;88.75;99937.35;109810;1280;22184;-77
2023/09/18 09:10:57;;;;;;;19.80;9.20;;;;;;;21.95;88.83;99937.30;109786;1284;22205;-78
2023/09/18 09:13:28;;;;;;;18.10;9.20;;;;;;;22.04;88.20;99937.95;109801;1284;22834;-79
2023/09/18 09:16:00;;;;;;;17.60;9.70;;;;;;;22.16;87.50;99938.23;109806;1284;22180;-77
2023/09/18 09:18:33;;;;;;;18.80;10.10;;;;;;;22.28;87.67;99933.39;109803;1284;22908;-77
2023/09/18 09:21:05;;;;;;;19.00;9.60;;;;;;;22.38;87.58;99937.23;109798;1284;22212;-77
2023/09/18 09:23:51;;;;;;;20.40;11.20;;;;;;;22.48;87.34;99936.16;109794;1284;22212;-79
2023/09/18 09:26:25;;;;;;;17.30;9.80;;;;;;;22.56;86.77;99935.94;109791;1284;23256;-77
2023/09/18 09:28:55;;;;;;;22.10;10.10;;;;;;;22.66;86.09;99936.11;109806;1276;22145;-77
2023/09/18 09:31:27;;;;;;;18.20;9.20;;;;;;;22.76;85.64;99933.09;109789;1284;22191;-76
2023/09/18 09:34:00;;;;;;;21.70;10.40;;;;;;;22.85;84.97;99926.94;109785;1284;22194;-77
2023/09/18 09:36:33;;;;;;;18.20;9.10;;;;;;;22.95;85.16;99927.55;109779;1284;22161;-77
2023/09/18 09:39:05;;;;;;;21.90;9.40;;;;;;;23.05;84.63;99928.66;109824;1282;22148;-77
2023/09/18 09:41:36;;;;;;;20.20;9.90;;;;;;;23.15;84.09;99924.99;109797;1284;22221;-77
2023/09/18 09:44:07;;;;;;;24.50;10.00;;;;;;;23.22;83.84;99923.23;109798;1284;22265;-77
2023/09/18 09:46:38;;;;;;;18.90;10.00;;;;;;;23.28;82.49;99920.92;109791;1284;22205;-77
2023/09/18 09:49:09;;;;;;;21.50;10.70;;;;;;;23.37;82.47;99917.01;109783;1284;22159;-79
2023/09/18 09:51:41;;;;;;;22.20;10.20;;;;;;;23.45;82.26;99914.35;109788;1284;22183;-77
2023/09/18 09:54:13;;;;;;;18.90;9.10;;;;;;;23.53;81.12;99914.31;109814;1284;23234;-78
2023/09/18 09:56:47;;;;;;;20.10;8.40;;;;;;;23.60;80.90;99908.65;109807;1284;22499;-77
2023/09/18 09:59:20;;;;;;;20.30;10.20;;;;;;;23.65;80.39;99902.20;109795;1284;22534;-77
2023/09/18 10:01:52;;;;;;;16.40;8.30;;;;;;;23.71;80.06;99900.72;109814;1284;22338;-77
2023/09/18 10:04:24;;;;;;;19.60;8.50;;;;;;;23.77;79.70;99897.34;109814;1284;22927;-77
2023/09/18 10:06:59;;;;;;;20.90;9.50;;;;;;;23.81;78.55;99892.07;109624;1284;234558;-77
2023/09/18 10:09:30;;;;;;;21.10;9.20;;;;;;;23.88;78.55;99893.48;109809;1276;22991;-77
2023/09/18 10:12:04;;;;;;;23.30;9.40;;;;;;;23.94;78.34;99889.60;109817;1284;22848;-77
2023/09/18 10:14:36;;;;;;;15.80;8.60;;;;;;;24.02;78.22;99890.34;109828;1284;22903;-78
2023/09/18 10:17:19;;;;;;;19.10;9.20;;;;;;;24.10;77.53;99885.33;109808;1284;22190;-78
2023/09/18 10:19:55;;;;;;;19.20;9.10;;;;;;;24.17;77.19;99879.67;109788;1284;22183;-77
2023/09/18 10:22:37;;;;;;;21.10;8.10;;;;;;;24.24;76.96;99874.53;109785;1284;22173;-77
2023/09/18 10:25:12;;;;;;;21.30;9.40;;;;;;;24.32;76.45;99871.49;109788;1284;22206;-77
2023/09/18 10:27:46;;;;;;;18.80;9.80;;;;;;;24.38;75.93;99875.16;109799;1280;23071;-78
2023/09/18 10:30:18;;;;;;;16.50;9.00;;;;;;;24.43;75.91;99873.48;109799;1284;22296;-78
2023/09/18 10:32:49;;;;;;;18.80;8.70;;;;;;;24.51;75.87;99872.60;109790;1276;22176;-77
2023/09/18 10:35:20;;;;;;;16.80;9.00;;;;;;;24.57;75.27;99868.81;109764;1284;22144;-78
2023/09/18 10:37:54;;;;;;;18.50;8.90;;;;;;;24.62;74.37;99864.99;109786;1284;23381;-77
2023/09/18 10:40:27;;;;;;;16.80;7.60;;;;;;;24.70;73.99;99871.46;109812;1284;22161;-79
2023/09/18 10:43:03;;;;;;;17.20;9.20;;;;;;;24.77;73.76;99869.25;109807;1284;22163;-77
2023/09/18 10:45:35;;;;;;;19.30;9.30;;;;;;;24.82;73.30;99864.58;109800;1284;22179;-77
2023/09/18 10:48:08;;;;;;;15.40;8.30;;;;;;;24.87;72.97;99862.66;109808;1284;23134;-77
2023/09/18 10:50:40;;;;;;;17.50;7.70;;;;;;;24.93;72.59;99861.45;109798;1284;22919;-79
2023/09/18 10:53:11;;;;;;;17.90;9.10;;;;;;;24.97;71.72;99859.34;109823;1284;22153;-81
2023/09/18 10:55:44;;;;;;;15.40;7.60;;;;;;;25.03;71.13;99859.79;109815;1276;22161;-77
2023/09/18 10:58:24;;;;;;;16.90;8.10;;;;;;;25.10;70.93;99862.53;107429;1284;22557;-77
2023/09/18 11:00:57;;;;;;;16.10;8.00;;;;;;;25.17;70.45;99859.14;107583;1284;22902;-77
2023/09/18 11:03:28;;;;;;;15.60;8.70;;;;;;;25.24;70.82;99866.00;109829;1283;22271;-78
2023/09/18 11:06:09;;;;;;;18.20;8.40;;;;;;;25.33;69.87;99864.55;109806;1284;22185;-78
2023/09/18 11:08:48;;;;;;;17.50;8.10;;;;;;;25.38;69.05;99854.27;109808;1284;22168;-78
2023/09/18 11:11:20;;;;;;;19.00;7.30;;;;;;;25.44;68.28;99844.77;109809;1284;22206;-78
2023/09/18 11:13:54;;;;;;;15.60;8.30;;;;;;;25.50;67.52;99838.32;109805;1284;22178;-78
2023/09/18 11:16:40;;;;;;;15.70;7.90;;;;;;;25.54;67.40;99838.34;109802;1279;22338;-77
2023/09/18 11:19:19;;;;;;;16.50;7.90;;;;;;;25.58;67.05;99834.77;109798;1284;22215;-79
2023/09/18 11:22:07;;;;;;;19.10;8.60;;;;;;;25.63;66.67;99830.02;109791;1284;22142;-78
2023/09/18 11:24:38;;;;;;;17.30;8.80;;;;;;;25.66;66.82;99821.42;109803;1284;22197;-81
2023/09/18 11:27:10;;;;;;;17.40;7.90;;;;;;;25.72;66.81;99820.84;109818;1284;22128;-79